Time;durP1;ratioP1;P1;durP2;ratioP2;P2;SDS_P1;SDS_P2;PMS_P1;PMS_P2;Temp;Humidity;BMP_temperature;BMP_pressure;BME280_temperature;BME280_humidity;BME280_pressure;Samples;Min_cycle;Max_cycle;Signal;HPM_P1;HPM_P2
2023/06/07 00:01:57;;;;;;;;;;;;;;;;;;6336721;28;19975;-73
2023/06/07 00:05:03;;;;;;;;;;;;;;;;;;6335699;28;19974;-71
2023/06/07 00:08:08;;;;;;;;;;;;;;;;;;6338002;28;20268;-73
2023/06/07 00:11:15;;;;;;;;;;;;;;;;;;6337459;28;19987;-70
2023/06/07 00:14:19;;;;;;;;;;;;;;;;;;6337126;28;19982;-71
2023/06/07 00:17:25;;;;;;;;;;;;;;;;;;6337414;28;19978;-70
2023/06/07 00:20:30;;;;;;;;;;;;;;;;;;6336524;28;19975;-71
2023/06/07 00:23:35;;;;;;;;;;;;;;;;;;6336741;28;19979;-70
2023/06/07 00:26:41;;;;;;;;;;;;;;;;;;6317361;28;19987;-71
2023/06/07 00:29:46;;;;;;;;;;;;;;;;;;6336310;28;19979;-71
2023/06/07 00:32:51;;;;;;;;;;;;;;;;;;6337049;28;19983;-70
2023/06/07 00:35:56;;;;;;;;;;;;;;;;;;6335947;28;19983;-70
2023/06/07 00:39:02;;;;;;;;;;;;;;;;;;6336526;28;20149;-73
2023/06/07 00:42:12;;;;;;;;;;;;;;;;;;6318963;28;19979;-70
2023/06/07 00:45:17;;;;;;;;;;;;;;;;;;6335751;28;20128;-70
2023/06/07 00:48:22;;;;;;;;;;;;;;;;;;6335982;28;19975;-71
2023/06/07 00:51:28;;;;;;;;;;;;;;;;;;6317957;28;20264;-70
2023/06/07 00:54:33;;;;;;;;;;;;;;;;;;6317657;28;20153;-71
2023/06/07 00:57:40;;;;;;;;;;;;;;;;;;6318561;28;19975;-70
2023/06/07 01:00:46;;;;;;;;;;;;;;;;;;6317493;28;19979;-71
2023/06/07 01:03:51;;;;;;;;;;;;;;;;;;6317839;28;19975;-70
2023/06/07 01:06:55;;;;;;;;;;;;;;;;;;6317444;28;19983;-69
2023/06/07 01:10:00;;;;;;;;;;;;;;;;;;6317300;28;19986;-70
2023/06/07 01:13:07;;;;;;;;;;;;;;;;;;6318032;28;20263;-70
2023/06/07 01:16:13;;;;;;;;;;;;;;;;;;6317289;28;20135;-70
2023/06/07 01:19:18;;;;;;;;;;;;;;;;;;6317449;28;19983;-71
2023/06/07 01:22:26;;;;;;;;;;;;;;;;;;6335659;28;19991;-70
2023/06/07 01:25:33;;;;;;;;;;;;;;;;;;6317141;28;19987;-70
2023/06/07 01:28:41;;;;;;;;;;;;;;;;;;6335758;28;19979;-70
2023/06/07 01:31:47;;;;;;;;;;;;;;;;;;6316873;28;19979;-68
2023/06/07 01:34:52;;;;;;;;;;;;;;;;;;6316855;28;19983;-69
2023/06/07 01:37:57;;;;;;;;;;;;;;;;;;6317735;28;20121;-70
2023/06/07 01:41:03;;;;;;;;;;;;;;;;;;6316912;28;20018;-71
2023/06/07 01:44:08;;;;;;;;;;;;;;;;;;6334845;28;19979;-69
2023/06/07 01:47:14;;;;;;;;;;;;;;;;;;6335226;28;19983;-70
2023/06/07 01:50:22;;;;;;;;;;;;;;;;;;6317367;28;19979;-70
2023/06/07 01:53:28;;;;;;;;;;;;;;;;;;6317583;28;19975;-70
2023/06/07 01:56:36;;;;;;;;;;;;;;;;;;6316823;28;19983;-71
2023/06/07 01:59:42;;;;;;;;;;;;;;;;;;6315734;28;20166;-71
2023/06/07 02:02:48;;;;;;;;;;;;;;;;;;6316918;28;19982;-70
2023/06/07 02:05:55;;;;;;;;;;;;;;;;;;6334613;28;19983;-70
2023/06/07 02:09:02;;;;;;;;;;;;;;;;;;6316022;28;19987;-69
2023/06/07 02:12:10;;;;;;;;;;;;;;;;;;6317242;28;20251;-69
2023/06/07 02:15:15;;;;;;;;;;;;;;;;;;6334194;28;20248;-69
2023/06/07 02:18:20;;;;;;;;;;;;;;;;;;6334491;28;19979;-71
2023/06/07 02:21:25;;;;;;;;;;;;;;;;;;6316276;28;19982;-69
2023/06/07 02:24:30;;;;;;;;;;;;;;;;;;6333799;28;19979;-71
2023/06/07 02:27:36;;;;;;;;;;;;;;;;;;6318450;28;19987;-70
2023/06/07 02:30:42;;;;;;;;;;;;;;;;;;6321558;28;19986;-70
2023/06/07 02:33:47;;;;;;;;;;;;;;;;;;6339261;28;19984;-70
2023/06/07 02:36:52;;;;;;;;;;;;;;;;;;6321133;28;19984;-71
2023/06/07 02:39:58;;;;;;;;;;;;;;;;;;6321007;28;19983;-70
2023/06/07 02:43:04;;;;;;;;;;;;;;;;;;6339386;28;20255;-70
2023/06/07 02:46:12;;;;;;;;;;;;;;;;;;6321210;28;19988;-70
2023/06/07 02:49:16;;;;;;;;;;;;;;;;;;6338865;28;19975;-69
2023/06/07 02:52:22;;;;;;;;;;;;;;;;;;6320680;28;19979;-71
2023/06/07 02:55:27;;;;;;;;;;;;;;;;;;6320629;28;19987;-70
2023/06/07 02:58:34;;;;;;;;;;;;;;;;;;6320884;28;20038;-70
2023/06/07 03:01:39;;;;;;;;;;;;;;;;;;6320594;28;19986;-71
2023/06/07 03:04:46;;;;;;;;;;;;;;;;;;6317367;28;19988;-71
2023/06/07 03:07:52;;;;;;;;;;;;;;;;;;6339432;28;19991;-70
2023/06/07 03:10:58;;;;;;;;;;;;;;;;;;6338050;28;19999;-70
2023/06/07 03:14:09;;;;;;;;;;;;;;;;;;6320079;28;20163;-70
2023/06/07 03:17:19;;;;;;;;;;;;;;;;;;6320912;28;19983;-69
2023/06/07 03:20:29;;;;;;;;;;;;;;;;;;6319940;28;20004;-70
2023/06/07 03:23:39;;;;;;;;;;;;;;;;;;6319249;28;19990;-70
2023/06/07 03:26:46;;;;;;;;;;;;;;;;;;6320161;28;19983;-70
2023/06/07 03:29:55;;;;;;;;;;;;;;;;;;6319792;28;19978;-69
2023/06/07 03:33:00;;;;;;;;;;;;;;;;;;6320567;28;19979;-71
2023/06/07 03:36:09;;;;;;;;;;;;;;;;;;6319878;28;20143;-70
2023/06/07 03:39:17;;;;;;;;;;;;;;;;;;6319272;28;19991;-71
2023/06/07 03:42:23;;;;;;;;;;;;;;;;;;6320039;28;19979;-69
2023/06/07 03:45:29;;;;;;;;;;;;;;;;;;6319070;28;19982;-69
2023/06/07 03:48:41;;;;;;;;;;;;;;;;;;6320320;28;19983;-71
2023/06/07 03:51:46;;;;;;;;;;;;;;;;;;6319625;28;19983;-69
2023/06/07 03:54:53;;;;;;;;;;;;;;;;;;6319091;28;20018;-70
2023/06/07 03:57:59;;;;;;;;;;;;;;;;;;6319794;28;19979;-71
2023/06/07 04:01:07;;;;;;;;;;;;;;;;;;6319435;28;19990;-71
2023/06/07 04:04:12;;;;;;;;;;;;;;;;;;6301856;28;19987;-70
2023/06/07 04:07:18;;;;;;;;;;;;;;;;;;6285994;28;20260;-69
2023/06/07 04:10:25;;;;;;;;;;;;;;;;;;6293894;28;19987;-70
2023/06/07 04:13:30;;;;;;;;;;;;;;;;;;6294581;28;19975;-71
2023/06/07 04:16:36;;;;;;;;;;;;;;;;;;6293982;28;20002;-70
2023/06/07 04:19:41;;;;;;;;;;;;;;;;;;6293869;28;19979;-71
2023/06/07 04:22:56;;;;;;;;;;;;;;;;;;6294280;28;20241;-69
2023/06/07 04:26:04;;;;;;;;;;;;;;;;;;6311286;28;19980;-70
2023/06/07 04:29:10;;;;;;;;;;;;;;;;;;6293586;28;19975;-72
2023/06/07 04:32:19;;;;;;;;;;;;;;;;;;6311900;28;19983;-72
2023/06/07 04:35:31;;;;;;;;;;;;;;;;;;6293727;28;19976;-69
2023/06/07 04:38:36;;;;;;;;;;;;;;;;;;6293943;28;20178;-72
2023/06/07 04:42:03;;;;;;;;;;;;;;;;;;6310449;28;19992;-70
2023/06/07 04:45:09;;;;;;;;;;;;;;;;;;6292996;28;19983;-70
2023/06/07 04:48:16;;;;;;;;;;;;;;;;;;6293296;28;20256;-69
2023/06/07 04:51:22;;;;;;;;;;;;;;;;;;6310080;28;19983;-71
2023/06/07 04:54:29;;;;;;;;;;;;;;;;;;6292999;28;19983;-70
2023/06/07 04:57:36;;;;;;;;;;;;;;;;;;6293596;28;19979;-70
2023/06/07 05:00:41;;;;;;;;;;;;;;;;;;6292952;28;19983;-70
2023/06/07 05:03:58;;;;;;;;;;;;;;;;;;6299433;28;19983;-70
2023/06/07 05:07:04;;;;;;;;;;;;;;;;;;6335502;28;19974;-71
2023/06/07 05:10:11;;;;;;;;;;;;;;;;;;6317395;28;19984;-69
2023/06/07 05:13:17;;;;;;;;;;;;;;;;;;6317720;28;19998;-69
2023/06/07 05:16:24;;;;;;;;;;;;;;;;;;6317493;28;20007;-71
2023/06/07 05:19:30;;;;;;;;;;;;;;;;;;6317587;28;20007;-70
2023/06/07 05:22:35;;;;;;;;;;;;;;;;;;6335344;28;19983;-70
2023/06/07 05:25:40;;;;;;;;;;;;;;;;;;6317337;28;20271;-70
2023/06/07 05:28:46;;;;;;;;;;;;;;;;;;6317949;28;19978;-70
2023/06/07 05:31:51;;;;;;;;;;;;;;;;;;6317100;28;19995;-70
2023/06/07 05:34:58;;;;;;;;;;;;;;;;;;6334556;28;19980;-70
2023/06/07 05:38:03;;;;;;;;;;;;;;;;;;6317315;28;20058;-70
2023/06/07 05:41:08;;;;;;;;;;;;;;;;;;6316755;28;19999;-70
2023/06/07 05:44:13;;;;;;;;;;;;;;;;;;6334854;28;19987;-69
2023/06/07 05:47:20;;;;;;;;;;;;;;;;;;6335399;28;19979;-70
2023/06/07 05:50:26;;;;;;;;;;;;;;;;;;6334633;28;19979;-69
2023/06/07 05:53:31;;;;;;;;;;;;;;;;;;6317473;28;19978;-69
2023/06/07 05:56:36;;;;;;;;;;;;;;;;;;6334783;28;19994;-70
2023/06/07 05:59:41;;;;;;;;;;;;;;;;;;6334147;28;19975;-70
2023/06/07 06:02:46;;;;;;;;;;;;;;;;;;6334698;28;19995;-68
2023/06/07 06:05:53;;;;;;;;;;;;;;;;;;6334124;28;19979;-69
2023/06/07 06:08:57;;;;;;;;;;;;;;;;;;6334666;28;19991;-69
2023/06/07 06:12:03;;;;;;;;;;;;;;;;;;6335262;28;19982;-70
2023/06/07 06:15:10;;;;;;;;;;;;;;;;;;6334727;28;19979;-70
2023/06/07 06:18:14;;;;;;;;;;;;;;;;;;6335365;28;19979;-70
2023/06/07 06:21:21;;;;;;;;;;;;;;;;;;6334864;28;19975;-71
2023/06/07 06:24:25;;;;;;;;;;;;;;;;;;6316655;28;19983;-70
2023/06/07 06:27:30;;;;;;;;;;;;;;;;;;6335205;28;19979;-70
2023/06/07 06:30:35;;;;;;;;;;;;;;;;;;6334475;28;19979;-69
2023/06/07 06:33:40;;;;;;;;;;;;;;;;;;6335224;28;19975;-70
2023/06/07 06:36:48;;;;;;;;;;;;;;;;;;6334756;28;19986;-70
2023/06/07 06:39:55;;;;;;;;;;;;;;;;;;6334439;28;20059;-71
2023/06/07 06:43:01;;;;;;;;;;;;;;;;;;6335121;28;20059;-69
2023/06/07 06:46:17;;;;;;;;;;;;;;;;;;6316790;28;20025;-70
2023/06/07 06:49:23;;;;;;;;;;;;;;;;;;6334474;28;20286;-70
2023/06/07 06:52:30;;;;;;;;;;;;;;;;;;6335338;28;19975;-69
2023/06/07 06:55:35;;;;;;;;;;;;;;;;;;6334153;28;19983;-70
2023/06/07 06:58:40;;;;;;;;;;;;;;;;;;6334680;28;19983;-71
2023/06/07 07:01:46;;;;;;;;;;;;;;;;;;6334414;28;19987;-70
2023/06/07 07:04:52;;;;;;;;;;;;;;;;;;6333817;28;19988;-70
2023/06/07 07:07:59;;;;;;;;;;;;;;;;;;6316786;28;19986;-70
2023/06/07 07:11:03;;;;;;;;;;;;;;;;;;6333917;28;19983;-69
2023/06/07 07:14:08;;;;;;;;;;;;;;;;;;6336049;28;19979;-70
2023/06/07 07:17:13;;;;;;;;;;;;;;;;;;6338838;28;19983;-70
2023/06/07 07:20:18;;;;;;;;;;;;;;;;;;6338690;28;19975;-70
2023/06/07 07:23:24;;;;;;;;;;;;;;;;;;6338671;28;20141;-70
2023/06/07 07:26:29;;;;;;;;;;;;;;;;;;6338829;28;20082;-70
2023/06/07 07:29:34;;;;;;;;;;;;;;;;;;6338561;28;20155;-70
2023/06/07 07:32:41;;;;;;;;;;;;;;;;;;6337724;28;19987;-71
2023/06/07 07:35:46;;;;;;;;;;;;;;;;;;6338248;28;20244;-69
2023/06/07 07:38:53;;;;;;;;;;;;;;;;;;6338384;28;20244;-70
2023/06/07 07:41:58;;;;;;;;;;;;;;;;;;6337478;28;20000;-69
2023/06/07 07:45:03;;;;;;;;;;;;;;;;;;6337717;28;19999;-70
2023/06/07 07:48:08;;;;;;;;;;;;;;;;;;6338065;28;19983;-70
2023/06/07 07:51:13;;;;;;;;;;;;;;;;;;6337675;28;19979;-70
2023/06/07 07:54:19;;;;;;;;;;;;;;;;;;6338049;28;19990;-70
2023/06/07 07:57:25;;;;;;;;;;;;;;;;;;6319821;28;19975;-70
2023/06/07 08:00:30;;;;;;;;;;;;;;;;;;6337101;28;19979;-69
2023/06/07 08:03:34;;;;;;;;;;;;;;;;;;6318881;28;19992;-70
2023/06/07 08:06:40;;;;;;;;;;;;;;;;;;6336870;28;20229;-70
2023/06/07 08:09:46;;;;;;;;;;;;;;;;;;6336771;28;19983;-71
2023/06/07 08:12:51;;;;;;;;;;;;;;;;;;6319774;28;19983;-69
2023/06/07 08:15:56;;;;;;;;;;;;;;;;;;6336907;28;19986;-69
2023/06/07 08:19:03;;;;;;;;;;;;;;;;;;6318782;28;19983;-71
2023/06/07 08:22:08;;;;;;;;;;;;;;;;;;6337864;28;19979;-74
2023/06/07 08:25:14;;;;;;;;;;;;;;;;;;6335683;28;19987;-70
2023/06/07 08:28:19;;;;;;;;;;;;;;;;;;6336942;28;20002;-70
2023/06/07 08:31:26;;;;;;;;;;;;;;;;;;6336394;28;19982;-69
2023/06/07 08:34:32;;;;;;;;;;;;;;;;;;6336519;28;19983;-69
2023/06/07 08:37:38;;;;;;;;;;;;;;;;;;6336933;28;19979;-70
2023/06/07 08:40:45;;;;;;;;;;;;;;;;;;6336862;28;19990;-75
2023/06/07 08:43:50;;;;;;;;;;;;;;;;;;6337668;28;19979;-70
2023/06/07 08:46:55;;;;;;;;;;;;;;;;;;6336056;28;19983;-69
2023/06/07 08:50:00;;;;;;;;;;;;;;;;;;6336288;28;19987;-70
2023/06/07 08:53:06;;;;;;;;;;;;;;;;;;6336341;28;20174;-70
2023/06/07 08:56:13;;;;;;;;;;;;;;;;;;6336111;28;19987;-70
2023/06/07 08:59:21;;;;;;;;;;;;;;;;;;6335849;28;19983;-71
2023/06/07 09:02:26;;;;;;;;;;;;;;;;;;6317527;28;19978;-70
2023/06/07 09:05:32;;;;;;;;;;;;;;;;;;6335126;28;19991;-71
2023/06/07 09:08:37;;;;;;;;;;;;;;;;;;6335799;28;20202;-70
2023/06/07 09:11:43;;;;;;;;;;;;;;;;;;6333831;28;20259;-70
2023/06/07 09:14:48;;;;;;;;;;;;;;;;;;6334920;28;19982;-71
2023/06/07 09:17:54;;;;;;;;;;;;;;;;;;6335481;28;19987;-70
2023/06/07 09:20:59;;;;;;;;;;;;;;;;;;6317179;28;19990;-71
2023/06/07 09:24:04;;;;;;;;;;;;;;;;;;6335382;28;20056;-69
2023/06/07 09:27:13;;;;;;;;;;;;;;;;;;6335980;28;19991;-70
2023/06/07 09:30:19;;;;;;;;;;;;;;;;;;6335190;28;19975;-70
2023/06/07 09:33:28;;;;;;;;;;;;;;;;;;6335207;28;19979;-71
2023/06/07 09:36:33;;;;;;;;;;;;;;;;;;6334937;28;19983;-69
2023/06/07 09:39:38;;;;;;;;;;;;;;;;;;6335053;28;19987;-71
2023/06/07 09:42:45;;;;;;;;;;;;;;;;;;6323012;28;20182;-71
2023/06/07 09:45:53;;;;;;;;;;;;;;;;;;6309792;28;19987;-70
2023/06/07 09:48:58;;;;;;;;;;;;;;;;;;6310031;28;19976;-70
2023/06/07 09:52:03;;;;;;;;;;;;;;;;;;6310865;28;19998;-68
2023/06/07 09:55:09;;;;;;;;;;;;;;;;;;6310265;28;19999;-69
2023/06/07 09:58:19;;;;;;;;;;;;;;;;;;6310854;28;19983;-72
2023/06/07 10:01:33;;;;;;;;;;;;;;;;;;6292520;28;19975;-70
2023/06/07 10:04:38;;;;;;;;;;;;;;;;;;6309872;28;19979;-70
2023/06/07 10:07:44;;;;;;;;;;;;;;;;;;6310693;28;19991;-70
2023/06/07 10:10:49;;;;;;;;;;;;;;;;;;6317505;28;19979;-69
2023/06/07 10:13:55;;;;;;;;;;;;;;;;;;6336243;28;19991;-70
2023/06/07 10:17:01;;;;;;;;;;;;;;;;;;6335307;28;19983;-70
2023/06/07 10:20:09;;;;;;;;;;;;;;;;;;6335355;28;19975;-70
2023/06/07 10:23:15;;;;;;;;;;;;;;;;;;6336239;28;19971;-71
2023/06/07 10:26:21;;;;;;;;;;;;;;;;;;6335635;28;19974;-70
2023/06/07 10:29:30;;;;;;;;;;;;;;;;;;6317192;28;19983;-71
2023/06/07 10:32:36;;;;;;;;;;;;;;;;;;6336614;28;19975;-71
2023/06/07 10:35:41;;;;;;;;;;;;;;;;;;6333873;28;19987;-71
2023/06/07 10:38:46;;;;;;;;;;;;;;;;;;6335226;28;20182;-70
2023/06/07 10:41:51;;;;;;;;;;;;;;;;;;6317582;28;19975;-70
2023/06/07 10:44:58;;;;;;;;;;;;;;;;;;6336076;28;20009;-70
2023/06/07 10:48:18;;;;;;;;;;;;;;;;;;6337155;28;19983;-71
2023/06/07 10:51:41;;;;;;;;;;;;;;;;;;6340745;28;20007;-70
2023/06/07 10:54:46;;;;;;;;;;;;;;;;;;6332543;28;19987;-70
2023/06/07 10:57:51;;;;;;;;;;;;;;;;;;6342080;28;19979;-74
2023/06/07 11:00:58;;;;;;;;;;;;;;;;;;6341439;28;20161;-72
2023/06/07 11:04:04;;;;;;;;;;;;;;;;;;6341472;28;20155;-71
2023/06/07 11:07:17;;;;;;;;;;;;;;;;;;6341647;28;19982;-71
2023/06/07 11:10:35;;;;;;;;;;;;;;;;;;6336748;28;19987;-72
2023/06/07 11:13:58;;;;;;;;;;;;;;;;;;6290420;28;19976;-70
2023/06/07 11:17:05;;;;;;;;;;;;;;;;;;6289454;28;20285;-72
2023/06/07 11:20:10;;;;;;;;;;;;;;;;;;6289354;28;19981;-71
2023/06/07 11:23:23;;;;;;;;;;;;;;;;;;6289549;28;20132;-72
2023/06/07 11:26:28;;;;;;;;;;;;;;;;;;6288706;28;19983;-72
2023/06/07 11:29:32;;;;;;;;;;;;;;;;;;6288489;28;19987;-70
2023/06/07 11:32:39;;;;;;;;;;;;;;;;;;6288298;28;19987;-71
2023/06/07 11:35:44;;;;;;;;;;;;;;;;;;6288165;28;19979;-70
2023/06/07 11:38:49;;;;;;;;;;;;;;;;;;6288779;28;19992;-70
2023/06/07 11:41:55;;;;;;;;;;;;;;;;;;6287842;28;20245;-70
2023/06/07 11:44:59;;;;;;;;;;;;;;;;;;6287829;28;20126;-71
2023/06/07 11:48:07;;;;;;;;;;;;;;;;;;6270395;28;19991;-70
2023/06/07 11:51:12;;;;;;;;;;;;;;;;;;6288205;28;20144;-71
2023/06/07 11:54:16;;;;;;;;;;;;;;;;;;6287523;28;19980;-71
2023/06/07 11:57:22;;;;;;;;;;;;;;;;;;6288135;28;19980;-70
2023/06/07 12:00:27;;;;;;;;;;;;;;;;;;6287055;28;19979;-71
2023/06/07 12:03:33;;;;;;;;;;;;;;;;;;6272804;28;19984;-69
2023/06/07 12:06:39;;;;;;;;;;;;;;;;;;6312406;28;19991;-70
2023/06/07 12:09:43;;;;;;;;;;;;;;;;;;6311815;28;20133;-70
2023/06/07 12:12:51;;;;;;;;;;;;;;;;;;6336091;28;20284;-71
2023/06/07 12:15:56;;;;;;;;;;;;;;;;;;6335746;28;19991;-70
2023/06/07 12:19:03;;;;;;;;;;;;;;;;;;6337280;28;19991;-71
2023/06/07 12:22:08;;;;;;;;;;;;;;;;;;6337311;28;19979;-70
2023/06/07 12:25:16;;;;;;;;;;;;;;;;;;6336754;28;20132;-70
2023/06/07 12:28:21;;;;;;;;;;;;;;;;;;6337174;28;19979;-71
2023/06/07 12:31:26;;;;;;;;;;;;;;;;;;6336479;28;19983;-71
2023/06/07 12:34:33;;;;;;;;;;;;;;;;;;6337442;28;19979;-69
2023/06/07 12:37:37;;;;;;;;;;;;;;;;;;6337096;28;19971;-70
2023/06/07 12:40:42;;;;;;;;;;;;;;;;;;6336657;28;20133;-70
2023/06/07 12:43:47;;;;;;;;;;;;;;;;;;6336650;28;19991;-71
2023/06/07 12:46:52;;;;;;;;;;;;;;;;;;6336058;28;19978;-71
2023/06/07 12:49:59;;;;;;;;;;;;;;;;;;6335158;28;19979;-70
2023/06/07 12:53:04;;;;;;;;;;;;;;;;;;6336701;28;20090;-71
2023/06/07 12:56:11;;;;;;;;;;;;;;;;;;6336194;28;20163;-70
2023/06/07 12:59:16;;;;;;;;;;;;;;;;;;6335979;28;19979;-70
2023/06/07 13:02:21;;;;;;;;;;;;;;;;;;6336620;28;19974;-72
2023/06/07 13:05:28;;;;;;;;;;;;;;;;;;6336074;28;19996;-70
2023/06/07 13:08:34;;;;;;;;;;;;;;;;;;6336121;28;19987;-71
2023/06/07 13:11:39;;;;;;;;;;;;;;;;;;6330090;28;20250;-71
2023/06/07 13:14:44;;;;;;;;;;;;;;;;;;6335872;28;19983;-71
2023/06/07 13:17:49;;;;;;;;;;;;;;;;;;6336171;28;19991;-71
2023/06/07 13:20:56;;;;;;;;;;;;;;;;;;6335208;28;19995;-71
2023/06/07 13:24:01;;;;;;;;;;;;;;;;;;6335766;28;19979;-71
2023/06/07 13:27:06;;;;;;;;;;;;;;;;;;6335323;28;20247;-71
2023/06/07 13:30:12;;;;;;;;;;;;;;;;;;6335529;28;19971;-70
2023/06/07 13:33:17;;;;;;;;;;;;;;;;;;6335238;28;20252;-70
2023/06/07 13:36:24;;;;;;;;;;;;;;;;;;6335089;28;19982;-71
2023/06/07 13:39:29;;;;;;;;;;;;;;;;;;6335214;28;20010;-70
2023/06/07 13:42:34;;;;;;;;;;;;;;;;;;6335574;28;19979;-71
2023/06/07 13:45:40;;;;;;;;;;;;;;;;;;6335054;28;19979;-70
2023/06/07 13:48:45;;;;;;;;;;;;;;;;;;6335186;28;19991;-71
2023/06/07 13:51:52;;;;;;;1.25;0.90;;;;;;;;;;6334031;28;20244;-71
2023/06/07 13:54:57;;;;;;;1.30;1.30;;;;;;;;;;6334131;28;20302;-71
2023/06/07 13:58:02;;;;;;;1.98;1.38;;;;;;;;;;6335437;28;20293;-70
2023/06/07 14:01:07;;;;;;;3.00;1.23;;;;;;;;;;6333907;28;20298;-70
2023/06/07 14:04:13;;;;;;;4.97;1.20;;;;;;;;;;6333569;28;20299;-71
2023/06/07 14:07:21;;;;;;;2.00;1.13;;;;;;;;;;6334541;28;20285;-71
2023/06/07 14:10:27;;;;;;;6.60;1.42;;;;;;;;;;6329654;28;20324;-70
2023/06/07 14:13:33;;;;;;;2.38;1.20;;;;;;;;;;6334649;28;20285;-70
2023/06/07 14:16:38;;;;;;;2.95;1.15;;;;;;;;;;6333883;28;20301;-69
2023/06/07 14:19:43;;;;;;;1.33;1.20;;;;;;;;;;6315741;28;20289;-69
2023/06/07 14:22:50;;;;;;;4.20;1.48;;;;;;;;;;6334475;28;20594;-70
2023/06/07 14:25:55;;;;;;;1.30;1.30;;;;;;;;;;6338740;28;20301;-70
2023/06/07 14:29:01;;;;;;;4.00;1.50;;;;;;;;;;6338556;28;20297;-71
2023/06/07 14:32:07;;;;;;;4.50;1.20;;;;;;;;;;6339170;28;20313;-71
2023/06/07 14:35:12;;;;;;;2.38;1.25;;;;;;;;;;6320963;28;20298;-71
2023/06/07 14:38:19;;;;;;;2.72;1.23;;;;;;;;;;6339493;28;20285;-71
2023/06/07 14:41:25;;;;;;;3.28;1.20;;;;;;;;;;6338766;28;20302;-70
2023/06/07 14:44:30;;;;;;;4.20;1.20;;;;;;;;;;6338801;28;20297;-70
2023/06/07 14:47:35;;;;;;;2.13;1.27;;;;;;;;;;6321603;28;20327;-69
2023/06/07 14:50:41;;;;;;;4.10;1.52;;;;;;;;;;6337530;28;20590;-70
2023/06/07 14:53:48;;;;;;;1.27;1.20;;;;;;;;;;6339095;28;20476;-70
2023/06/07 14:56:53;;;;;;;2.15;1.23;;;;;;;;;;6338730;28;20298;-69
2023/06/07 14:59:58;;;;;;;1.00;1.00;;;;;;;;;;6338542;28;20293;-71
2023/06/07 15:03:03;;;;;;;0.98;0.98;;;;;;;;;;6339134;28;20294;-70
2023/06/07 15:06:08;;;;;;;5.20;1.73;;;;;;;;;;6338387;28;20294;-72
2023/06/07 15:09:15;;;;;;;1.30;1.30;;;;;;;;;;6338273;28;20289;-70
2023/06/07 15:12:20;;;;;;;4.15;1.42;;;;;;;;;;6334309;28;20301;-72
2023/06/07 15:15:26;;;;;;;4.47;1.35;;;;;;;;;;6337993;28;20289;-71
2023/06/07 15:18:31;;;;;;;2.40;1.10;;;;;;;;;;6338038;28;20293;-70
2023/06/07 15:21:37;;;;;;;3.63;1.25;;;;;;;;;;6337560;28;20294;-70
2023/06/07 15:24:44;;;;;;;1.45;1.45;;;;;;;;;;6337692;28;20305;-70
2023/06/07 15:27:49;;;;;;;4.95;1.17;;;;;;;;;;6338057;28;20480;-70
2023/06/07 15:30:54;;;;;;;1.20;1.17;;;;;;;;;;6337483;28;20294;-68
2023/06/07 15:34:01;;;;;;;1.92;1.00;;;;;;;;;;6336530;28;20297;-70
2023/06/07 15:37:09;;;;;;;1.75;1.50;;;;;;;;;;6337962;28;20302;-70
2023/06/07 15:40:15;;;;;;;1.10;1.10;;;;;;;;;;6337516;28;20294;-70
2023/06/07 15:43:20;;;;;;;3.30;1.40;;;;;;;;;;6337436;28;20305;-71
2023/06/07 15:46:25;;;;;;;3.33;3.03;;;;;;;;;;6337361;28;20293;-70
2023/06/07 15:49:31;;;;;;;7.55;6.93;;;;;;;;;;6337153;28;20301;-71
2023/06/07 15:52:36;;;;;;;4.75;3.00;;;;;;;;;;6337529;28;20288;-70
2023/06/07 15:55:44;;;;;;;4.85;1.40;;;;;;;;;;6337060;28;20309;-71
2023/06/07 15:58:49;;;;;;;4.13;1.50;;;;;;;;;;6337220;28;20301;-70
2023/06/07 16:02:00;;;;;;;5.47;1.40;;;;;;;;;;6336560;28;20313;-71
2023/06/07 16:05:06;;;;;;;2.80;1.50;;;;;;;;;;6336929;28;20293;-69
2023/06/07 16:08:13;;;;;;;2.90;1.35;;;;;;;;;;6337167;28;20294;-70
2023/06/07 16:11:21;;;;;;;5.78;1.67;;;;;;;;;;6332369;28;20467;-70
2023/06/07 16:14:26;;;;;;;2.45;1.45;;;;;;;;;;6336620;28;20606;-70
2023/06/07 16:17:32;;;;;;;4.75;1.10;;;;;;;;;;6336926;28;20347;-70
2023/06/07 16:20:37;;;;;;;2.25;1.50;;;;;;;;;;6336864;28;20285;-70
2023/06/07 16:23:42;;;;;;;1.45;1.02;;;;;;;;;;6335725;28;20573;-71
2023/06/07 16:26:49;;;;;;;1.35;1.30;;;;;;;;;;6336787;28;20596;-70
2023/06/07 16:29:54;;;;;;;1.77;1.20;;;;;;;;;;6336428;28;20281;-71
2023/06/07 16:33:00;;;;;;;6.53;1.30;;;;;;;;;;6336611;28;20301;-72
2023/06/07 16:36:05;;;;;;;1.33;1.20;;;;;;;;;;6336091;28;20294;-70
2023/06/07 16:39:12;;;;;;;3.22;1.30;;;;;;;;;;6336020;28;20294;-69
2023/06/07 16:42:19;;;;;;;2.25;1.25;;;;;;;;;;6336640;28;20297;-68
2023/06/07 16:45:26;;;;;;;4.38;1.30;;;;;;;;;;6335394;28;20297;-70
2023/06/07 16:48:31;;;;;;;5.10;1.35;;;;;;;;;;6335931;28;20298;-71
2023/06/07 16:51:36;;;;;;;2.60;1.10;;;;;;;;;;6335783;28;20305;-69
2023/06/07 16:54:42;;;;;;;3.72;1.15;;;;;;;;;;6317630;28;20305;-71
2023/06/07 16:57:49;;;;;;;5.05;1.40;;;;;;;;;;6336779;28;20289;-70
2023/06/07 17:00:54;;;;;;;2.10;1.50;;;;;;;;;;6335500;28;20297;-71
2023/06/07 17:03:59;;;;;;;3.30;1.35;;;;;;;;;;6328326;28;20295;-70
2023/06/07 17:07:05;;;;;;;1.88;1.20;;;;;;;;;;6310815;28;20290;-70
2023/06/07 17:10:11;;;;;;;10.35;2.63;;;;;;;;;;6309871;28;20450;-70
2023/06/07 17:13:18;;;;;;;3.17;1.95;;;;;;;;;;6310767;28;20431;-68
2023/06/07 17:16:23;;;;;;;5.40;3.15;;;;;;;;;;6310080;28;20291;-69
2023/06/07 17:19:28;;;;;;;5.18;1.70;;;;;;;;;;6309974;28;20286;-70
2023/06/07 17:22:34;;;;;;;3.83;2.55;;;;;;;;;;6310415;28;20480;-69
2023/06/07 17:25:39;;;;;;;1.67;1.50;;;;;;;;;;6309380;28;20302;-69
2023/06/07 19:01:27;;;;;;;5.80;2.50;;;;;;;;;;6307813;27;20308;-71
2023/06/07 19:04:54;;;;;;;5.15;2.53;;;;;;;;;;6306454;28;20539;-72
2023/06/07 19:07:59;;;;;;;4.10;2.80;;;;;;;;;;6582349;22;20224;-71
2023/06/07 19:11:04;;;;;;;8.85;2.30;;;;;;;;;;6256434;28;20288;-70
2023/06/07 19:14:10;;;;;;;5.65;2.65;;;;;;;;;;6256501;28;20300;-70
2023/06/07 19:17:16;;;;;;;4.25;1.98;;;;;;;;;;6255970;28;20311;-71
2023/06/07 19:20:22;;;;;;;8.77;3.25;;;;;;;;;;6256894;28;20291;-70
2023/06/07 19:23:29;;;;;;;6.70;3.17;;;;;;;;;;6256320;28;20295;-70
2023/06/07 19:26:35;;;;;;;2.83;2.03;;;;;;;;;;6256681;28;20374;-73
2023/06/07 19:29:40;;;;;;;9.77;3.10;;;;;;;;;;6255186;28;20300;-70
2023/06/07 19:32:48;;;;;;;8.10;2.38;;;;;;;;;;6255956;28;20295;-72
2023/06/07 19:35:53;;;;;;;6.90;2.22;;;;;;;;;;6256765;28;20272;-71
2023/06/07 19:38:58;;;;;;;2.13;2.00;;;;;;;;;;6256478;28;20320;-69
2023/06/07 19:42:06;;;;;;;1.92;1.60;;;;;;;;;;6245317;28;20265;-70
2023/06/07 19:45:12;;;;;;;4.65;2.10;;;;;;;;;;6232343;28;20269;-70
2023/06/07 19:48:18;;;;;;;2.45;2.00;;;;;;;;;;6231965;28;20297;-71
2023/06/07 19:51:24;;;;;;;2.97;1.90;;;;;;;;;;6232241;28;20272;-71
2023/06/07 19:54:29;;;;;;;6.50;1.77;;;;;;;;;;6231666;28;20296;-71
2023/06/07 19:57:34;;;;;;;7.55;1.67;;;;;;;;;;6232303;28;20297;-70
2023/06/07 20:00:39;;;;;;;2.42;1.83;;;;;;;;;;6231780;28;20304;-72
2023/06/07 20:03:46;;;;;;;3.50;1.60;;;;;;;;;;6231251;28;20340;-72
2023/06/07 20:06:52;;;;;;;5.80;2.00;;;;;;;;;;6231882;28;20300;-71
2023/06/07 20:10:02;;;;;;;5.15;1.80;;;;;;;;;;6231268;28;20296;-70
2023/06/07 20:13:16;;;;;;;3.67;1.50;;;;;;;;;;6214878;28;20301;-70
2023/06/07 20:16:21;;;;;;;2.00;1.80;;;;;;;;;;6215436;28;20265;-71
2023/06/07 20:19:28;;;;;;;2.58;1.60;;;;;;;;;;6215003;28;20308;-71
2023/06/07 20:22:36;;;;;;;7.13;1.67;;;;;;;;;;6214799;28;20297;-70
2023/06/07 20:25:41;;;;;;;3.70;1.67;;;;;;;;;;6215029;28;20473;-70
2023/06/07 20:28:46;;;;;;;5.90;1.98;;;;;;;;;;6214470;28;20293;-71
2023/06/07 20:31:52;;;;;;;1.52;1.52;;;;;;;;;;6215049;28;20269;-70
2023/06/07 20:34:58;;;;;;;1.45;1.40;;;;;;;;;;6213472;28;20293;-70
2023/06/07 20:38:04;;;;;;;3.00;1.63;;;;;;;;;;6213968;28;20321;-70
2023/06/07 20:41:11;;;;;;;1.60;1.60;;;;;;;;;;6214598;28;20293;-70
2023/06/07 20:44:16;;;;;;;4.82;2.30;;;;;;;;;;6214235;28;20370;-70
2023/06/07 20:47:21;;;;;;;1.85;1.73;;;;;;;;;;6213692;28;20434;-71
2023/06/07 20:50:28;;;;;;;3.20;1.20;;;;;;;;;;6214315;28;20273;-69
2023/06/07 20:53:33;;;;;;;5.25;2.22;;;;;;;;;;6212330;28;20297;-70
2023/06/07 20:56:38;;;;;;;1.60;1.50;;;;;;;;;;6214051;28;20273;-70
2023/06/07 20:59:46;;;;;;;1.85;1.10;;;;;;;;;;6213380;28;20309;-70
2023/06/07 21:02:51;;;;;;;2.83;1.30;;;;;;;;;;6213191;28;20297;-71
2023/06/07 21:05:57;;;;;;;1.48;1.48;;;;;;;;;;6213793;28;20265;-71
2023/06/07 21:09:03;;;;;;;6.65;1.92;;;;;;;;;;6213882;28;20317;-70
2023/06/07 21:12:10;;;;;;;3.67;1.75;;;;;;;;;;6212957;28;20277;-71
2023/06/07 21:15:15;;;;;;;1.98;1.83;;;;;;;;;;6213888;28;20277;-71
2023/06/07 21:18:20;;;;;;;7.00;1.40;;;;;;;;;;6213176;28;20297;-71
2023/06/07 21:21:27;;;;;;;1.63;1.52;;;;;;;;;;6213643;28;20569;-71
2023/06/07 21:24:33;;;;;;;1.63;1.20;;;;;;;;;;6210889;28;20296;-69
2023/06/07 21:27:38;;;;;;;2.10;1.92;;;;;;;;;;6211994;28;20292;-71
2023/06/07 21:30:44;;;;;;;5.13;1.92;;;;;;;;;;6212611;28;20273;-70
2023/06/07 21:33:58;;;;;;;12.75;1.80;;;;;;;;;;6212913;28;20305;-71
2023/06/07 21:37:05;;;;;;;4.22;1.33;;;;;;;;;;6212477;28;20266;-69
2023/06/07 21:40:13;;;;;;;5.78;1.38;;;;;;;;;;6213267;28;20274;-69
2023/06/07 21:43:18;;;;;;;4.03;1.50;;;;;;;;;;6217968;28;20320;-69
2023/06/07 21:46:23;;;;;;;5.53;1.80;;;;;;;;;;6237312;28;20272;-70
2023/06/07 21:49:29;;;;;;;1.38;1.38;;;;;;;;;;6236959;28;20297;-70